sensor_id;sensor_type;location;lat;lon;timestamp;pressure;altitude;pressure_sealevel;temperature;humidity
46876;BME280;32866;50.160;14.768;2022-10-16T00:01:24;99329.22;;;13.02;100.00
46876;BME280;32866;50.160;14.768;2022-10-16T00:03:50;99341.59;;;12.97;100.00
46876;BME280;32866;50.160;14.768;2022-10-16T00:06:17;99342.53;;;13.22;100.00
46876;BME280;32866;50.160;14.768;2022-10-16T00:08:43;99340.53;;;13.04;100.00
46876;BME280;32866;50.160;14.768;2022-10-16T00:11:10;99339.78;;;13.22;100.00
46876;BME280;32866;50.160;14.768;2022-10-16T00:13:36;99341.06;;;13.40;100.00
46876;BME280;32866;50.160;14.768;2022-10-16T00:16:02;99346.50;;;13.21;100.00
46876;BME280;32866;50.160;14.768;2022-10-16T00:18:28;99339.94;;;13.28;100.00
46876;BME280;32866;50.160;14.768;2022-10-16T00:20:54;99333.78;;;13.05;100.00
46876;BME280;32866;50.160;14.768;2022-10-16T00:23:27;99334.25;;;12.94;100.00
46876;BME280;32866;50.160;14.768;2022-10-16T00:25:56;99325.38;;;12.99;100.00
46876;BME280;32866;50.160;14.768;2022-10-16T00:28:21;99323.28;;;13.13;100.00
46876;BME280;32866;50.160;14.768;2022-10-16T00:30:47;99323.88;;;13.17;100.00
46876;BME280;32866;50.160;14.768;2022-10-16T00:33:15;99327.88;;;13.16;100.00
46876;BME280;32866;50.160;14.768;2022-10-16T00:35:40;99333.78;;;12.96;100.00
46876;BME280;32866;50.160;14.768;2022-10-16T00:38:05;99330.59;;;13.07;100.00
46876;BME280;32866;50.160;14.768;2022-10-16T00:40:31;99348.94;;;13.01;100.00
46876;BME280;32866;50.160;14.768;2022-10-16T00:42:56;99356.72;;;13.02;100.00
46876;BME280;32866;50.160;14.768;2022-10-16T00:45:22;99357.16;;;12.91;100.00
46876;BME280;32866;50.160;14.768;2022-10-16T00:47:47;99362.03;;;12.87;100.00
46876;BME280;32866;50.160;14.768;2022-10-16T00:52:48;99361.56;;;12.79;100.00
46876;BME280;32866;50.160;14.768;2022-10-16T00:55:15;99374.22;;;12.77;100.00
46876;BME280;32866;50.160;14.768;2022-10-16T00:57:41;99370.25;;;12.78;100.00
46876;BME280;32866;50.160;14.768;2022-10-16T01:00:07;99368.84;;;12.73;100.00
46876;BME280;32866;50.160;14.768;2022-10-16T01:02:33;99363.50;;;12.70;100.00
46876;BME280;32866;50.160;14.768;2022-10-16T01:04:58;99360.44;;;12.68;100.00
46876;BME280;32866;50.160;14.768;2022-10-16T01:12:21;99362.88;;;12.66;100.00
46876;BME280;32866;50.160;14.768;2022-10-16T01:17:36;99372.69;;;12.76;100.00
46876;BME280;32866;50.160;14.768;2022-10-16T01:25:56;99377.91;;;12.83;100.00
46876;BME280;32866;50.160;14.768;2022-10-16T01:28:26;99367.75;;;12.61;100.00
46876;BME280;32866;50.160;14.768;2022-10-16T01:30:53;99369.63;;;12.74;100.00
46876;BME280;32866;50.160;14.768;2022-10-16T01:33:27;99370.50;;;12.61;100.00
46876;BME280;32866;50.160;14.768;2022-10-16T01:35:56;99373.56;;;12.64;100.00
46876;BME280;32866;50.160;14.768;2022-10-16T01:38:25;99379.53;;;12.62;100.00
46876;BME280;32866;50.160;14.768;2022-10-16T01:40:56;99373.69;;;12.60;100.00
46876;BME280;32866;50.160;14.768;2022-10-16T01:43:26;99365.72;;;12.53;100.00
46876;BME280;32866;50.160;14.768;2022-10-16T01:45:52;99365.88;;;12.49;100.00
46876;BME280;32866;50.160;14.768;2022-10-16T01:48:18;99362.16;;;12.43;100.00
46876;BME280;32866;50.160;14.768;2022-10-16T01:50:44;99357.91;;;12.42;100.00
46876;BME280;32866;50.160;14.768;2022-10-16T01:53:14;99353.75;;;12.37;100.00
46876;BME280;32866;50.160;14.768;2022-10-16T01:55:42;99356.41;;;12.50;100.00
46876;BME280;32866;50.160;14.768;2022-10-16T01:58:10;99349.81;;;12.38;100.00
46876;BME280;32866;50.160;14.768;2022-10-16T02:00:37;99357.38;;;12.25;100.00
46876;BME280;32866;50.160;14.768;2022-10-16T02:03:03;99354.16;;;12.27;100.00
46876;BME280;32866;50.160;14.768;2022-10-16T02:05:34;99360.88;;;12.25;100.00
46876;BME280;32866;50.160;14.768;2022-10-16T02:08:03;99356.22;;;12.13;100.00
46876;BME280;32866;50.160;14.768;2022-10-16T02:10:29;99356.84;;;12.17;100.00
46876;BME280;32866;50.160;14.768;2022-10-16T02:13:19;99363.41;;;12.20;100.00
46876;BME280;32866;50.160;14.768;2022-10-16T02:15:41;99370.28;;;12.15;100.00
46876;BME280;32866;50.160;14.768;2022-10-16T02:18:06;99363.31;;;12.23;100.00
46876;BME280;32866;50.160;14.768;2022-10-16T02:20:33;99364.81;;;12.24;100.00
46876;BME280;32866;50.160;14.768;2022-10-16T02:22:59;99368.34;;;12.25;100.00
46876;BME280;32866;50.160;14.768;2022-10-16T02:25:32;99369.41;;;12.28;100.00
46876;BME280;32866;50.160;14.768;2022-10-16T02:28:04;99373.06;;;12.24;100.00
46876;BME280;32866;50.160;14.768;2022-10-16T02:30:36;99358.88;;;12.26;100.00
46876;BME280;32866;50.160;14.768;2022-10-16T02:33:05;99365.13;;;12.27;100.00
46876;BME280;32866;50.160;14.768;2022-10-16T02:35:32;99360.28;;;12.31;100.00
46876;BME280;32866;50.160;14.768;2022-10-16T02:37:57;99366.69;;;12.28;100.00
46876;BME280;32866;50.160;14.768;2022-10-16T02:40:23;99369.13;;;12.25;100.00
46876;BME280;32866;50.160;14.768;2022-10-16T02:42:50;99356.00;;;12.30;100.00
46876;BME280;32866;50.160;14.768;2022-10-16T02:45:16;99360.44;;;12.27;100.00
46876;BME280;32866;50.160;14.768;2022-10-16T02:47:41;99363.94;;;12.28;100.00
46876;BME280;32866;50.160;14.768;2022-10-16T02:50:06;99370.63;;;12.27;100.00
46876;BME280;32866;50.160;14.768;2022-10-16T02:52:32;99366.06;;;12.23;100.00
46876;BME280;32866;50.160;14.768;2022-10-16T02:54:57;99370.28;;;12.15;100.00
46876;BME280;32866;50.160;14.768;2022-10-16T02:57:22;99366.31;;;12.16;100.00
46876;BME280;32866;50.160;14.768;2022-10-16T02:59:47;99357.47;;;12.21;100.00
46876;BME280;32866;50.160;14.768;2022-10-16T03:02:13;99352.63;;;12.25;100.00
46876;BME280;32866;50.160;14.768;2022-10-16T03:04:38;99358.56;;;12.24;100.00
46876;BME280;32866;50.160;14.768;2022-10-16T03:07:03;99359.03;;;12.22;100.00
46876;BME280;32866;50.160;14.768;2022-10-16T03:09:29;99367.41;;;12.19;100.00
46876;BME280;32866;50.160;14.768;2022-10-16T03:11:54;99366.31;;;12.16;100.00
46876;BME280;32866;50.160;14.768;2022-10-16T03:14:44;99358.50;;;12.15;100.00
46876;BME280;32866;50.160;14.768;2022-10-16T03:17:11;99373.66;;;12.19;100.00
46876;BME280;32866;50.160;14.768;2022-10-16T03:19:36;99372.56;;;12.17;100.00
46876;BME280;32866;50.160;14.768;2022-10-16T03:22:01;99375.13;;;12.11;100.00
46876;BME280;32866;50.160;14.768;2022-10-16T03:24:27;99386.09;;;12.11;100.00
46876;BME280;32866;50.160;14.768;2022-10-16T03:26:52;99388.22;;;12.07;100.00
46876;BME280;32866;50.160;14.768;2022-10-16T03:29:17;99394.78;;;12.10;100.00
46876;BME280;32866;50.160;14.768;2022-10-16T03:31:42;99397.22;;;12.07;100.00
46876;BME280;32866;50.160;14.768;2022-10-16T03:34:07;99406.50;;;12.01;100.00
46876;BME280;32866;50.160;14.768;2022-10-16T03:36:33;99405.66;;;12.13;100.00
46876;BME280;32866;50.160;14.768;2022-10-16T03:38:58;99402.47;;;12.15;100.00
46876;BME280;32866;50.160;14.768;2022-10-16T03:41:23;99408.34;;;12.04;100.00
46876;BME280;32866;50.160;14.768;2022-10-16T03:43:48;99404.50;;;12.01;100.00
46876;BME280;32866;50.160;14.768;2022-10-16T03:46:13;99394.53;;;11.95;100.00
46876;BME280;32866;50.160;14.768;2022-10-16T03:48:39;99403.69;;;12.14;100.00
46876;BME280;32866;50.160;14.768;2022-10-16T03:51:04;99408.88;;;12.12;100.00
46876;BME280;32866;50.160;14.768;2022-10-16T03:53:30;99414.91;;;12.06;100.00
46876;BME280;32866;50.160;14.768;2022-10-16T03:55:55;99421.25;;;12.16;100.00
46876;BME280;32866;50.160;14.768;2022-10-16T03:58:20;99420.63;;;12.12;100.00
46876;BME280;32866;50.160;14.768;2022-10-16T04:00:51;99428.53;;;12.10;100.00
46876;BME280;32866;50.160;14.768;2022-10-16T04:03:17;99427.56;;;12.04;100.00
46876;BME280;32866;50.160;14.768;2022-10-16T04:05:43;99424.94;;;12.22;100.00
46876;BME280;32866;50.160;14.768;2022-10-16T04:08:09;99418.44;;;12.07;100.00
46876;BME280;32866;50.160;14.768;2022-10-16T04:10:34;99420.06;;;12.27;100.00
46876;BME280;32866;50.160;14.768;2022-10-16T04:12:59;99420.56;;;12.25;100.00
46876;BME280;32866;50.160;14.768;2022-10-16T04:15:25;99416.63;;;12.13;100.00
46876;BME280;32866;50.160;14.768;2022-10-16T04:17:50;99424.19;;;12.22;100.00
46876;BME280;32866;50.160;14.768;2022-10-16T04:20:15;99429.09;;;12.27;100.00
46876;BME280;32866;50.160;14.768;2022-10-16T04:22:41;99424.38;;;12.28;100.00
46876;BME280;32866;50.160;14.768;2022-10-16T04:25:06;99418.84;;;12.18;100.00
46876;BME280;32866;50.160;14.768;2022-10-16T04:27:31;99427.63;;;12.35;100.00
46876;BME280;32866;50.160;14.768;2022-10-16T04:29:57;99427.50;;;12.39;100.00
46876;BME280;32866;50.160;14.768;2022-10-16T04:32:22;99439.31;;;12.27;100.00
46876;BME280;32866;50.160;14.768;2022-10-16T04:34:47;99443.88;;;12.20;100.00
46876;BME280;32866;50.160;14.768;2022-10-16T04:37:12;99434.72;;;12.23;100.00
46876;BME280;32866;50.160;14.768;2022-10-16T04:39:38;99446.66;;;12.30;100.00
46876;BME280;32866;50.160;14.768;2022-10-16T04:42:03;99439.22;;;12.30;100.00
46876;BME280;32866;50.160;14.768;2022-10-16T04:44:28;99440.94;;;12.37;100.00
46876;BME280;32866;50.160;14.768;2022-10-16T04:46:53;99449.81;;;12.72;100.00
46876;BME280;32866;50.160;14.768;2022-10-16T04:49:18;99450.91;;;13.15;100.00
46876;BME280;32866;50.160;14.768;2022-10-16T04:51:44;99456.16;;;13.32;100.00
46876;BME280;32866;50.160;14.768;2022-10-16T04:54:09;99455.38;;;13.31;100.00
46876;BME280;32866;50.160;14.768;2022-10-16T04:56:34;99458.72;;;13.26;100.00
46876;BME280;32866;50.160;14.768;2022-10-16T04:59:05;99450.78;;;13.28;100.00
46876;BME280;32866;50.160;14.768;2022-10-16T05:01:30;99452.19;;;13.33;100.00
46876;BME280;32866;50.160;14.768;2022-10-16T05:03:55;99447.13;;;13.31;100.00
46876;BME280;32866;50.160;14.768;2022-10-16T05:06:20;99451.53;;;13.29;100.00
46876;BME280;32866;50.160;14.768;2022-10-16T05:08:45;99454.44;;;13.25;100.00
46876;BME280;32866;50.160;14.768;2022-10-16T05:11:11;99454.06;;;13.05;100.00
46876;BME280;32866;50.160;14.768;2022-10-16T05:13:36;99448.84;;;12.97;100.00
46876;BME280;32866;50.160;14.768;2022-10-16T05:16:01;99449.81;;;13.13;100.00
46876;BME280;32866;50.160;14.768;2022-10-16T05:18:26;99439.94;;;12.84;100.00
46876;BME280;32866;50.160;14.768;2022-10-16T05:20:51;99447.66;;;12.67;100.00
46876;BME280;32866;50.160;14.768;2022-10-16T05:23:17;99446.25;;;12.62;100.00
46876;BME280;32866;50.160;14.768;2022-10-16T05:25:42;99440.44;;;12.60;100.00
46876;BME280;32866;50.160;14.768;2022-10-16T05:28:07;99440.69;;;12.53;100.00
46876;BME280;32866;50.160;14.768;2022-10-16T05:30:32;99441.63;;;12.50;100.00
46876;BME280;32866;50.160;14.768;2022-10-16T05:32:57;99438.53;;;12.48;100.00
46876;BME280;32866;50.160;14.768;2022-10-16T05:35:23;99451.50;;;12.48;100.00
46876;BME280;32866;50.160;14.768;2022-10-16T05:37:48;99449.47;;;12.39;100.00
46876;BME280;32866;50.160;14.768;2022-10-16T05:40:13;99457.06;;;12.35;100.00
46876;BME280;32866;50.160;14.768;2022-10-16T05:42:39;99467.75;;;12.33;100.00
46876;BME280;32866;50.160;14.768;2022-10-16T05:45:04;99472.28;;;12.49;100.00
46876;BME280;32866;50.160;14.768;2022-10-16T05:47:30;99483.91;;;12.53;100.00
46876;BME280;32866;50.160;14.768;2022-10-16T05:49:55;99488.06;;;12.57;100.00
46876;BME280;32866;50.160;14.768;2022-10-16T05:52:20;99493.28;;;12.65;100.00
46876;BME280;32866;50.160;14.768;2022-10-16T05:54:46;99492.47;;;12.77;100.00
46876;BME280;32866;50.160;14.768;2022-10-16T05:57:11;99495.47;;;13.01;100.00
46876;BME280;32866;50.160;14.768;2022-10-16T05:59:36;99490.78;;;13.11;100.00
46876;BME280;32866;50.160;14.768;2022-10-16T06:02:02;99495.50;;;13.10;100.00
46876;BME280;32866;50.160;14.768;2022-10-16T06:04:27;99502.09;;;13.13;100.00
46876;BME280;32866;50.160;14.768;2022-10-16T06:06:52;99504.09;;;13.12;100.00
46876;BME280;32866;50.160;14.768;2022-10-16T06:09:17;99502.38;;;13.06;100.00
46876;BME280;32866;50.160;14.768;2022-10-16T06:11:42;99501.88;;;12.98;100.00
46876;BME280;32866;50.160;14.768;2022-10-16T06:14:08;99501.31;;;12.81;100.00
46876;BME280;32866;50.160;14.768;2022-10-16T06:16:34;99505.13;;;12.74;100.00
46876;BME280;32866;50.160;14.768;2022-10-16T06:19:00;99511.03;;;12.64;100.00
46876;BME280;32866;50.160;14.768;2022-10-16T06:21:26;99522.56;;;12.80;100.00
46876;BME280;32866;50.160;14.768;2022-10-16T06:23:51;99526.69;;;12.85;100.00
46876;BME280;32866;50.160;14.768;2022-10-16T06:26:18;99533.81;;;12.73;100.00
46876;BME280;32866;50.160;14.768;2022-10-16T06:28:44;99537.59;;;12.67;100.00
46876;BME280;32866;50.160;14.768;2022-10-16T06:31:10;99545.94;;;12.85;100.00
46876;BME280;32866;50.160;14.768;2022-10-16T06:33:36;99551.41;;;12.76;100.00
46876;BME280;32866;50.160;14.768;2022-10-16T06:38:27;99547.75;;;12.79;100.00
46876;BME280;32866;50.160;14.768;2022-10-16T06:40:53;99561.81;;;12.81;100.00
46876;BME280;32866;50.160;14.768;2022-10-16T06:43:18;99559.59;;;12.89;100.00
46876;BME280;32866;50.160;14.768;2022-10-16T06:45:43;99558.88;;;12.97;100.00
46876;BME280;32866;50.160;14.768;2022-10-16T06:48:14;99557.03;;;13.04;100.00
46876;BME280;32866;50.160;14.768;2022-10-16T06:50:39;99562.69;;;13.00;100.00
46876;BME280;32866;50.160;14.768;2022-10-16T06:53:06;99564.69;;;12.99;100.00
46876;BME280;32866;50.160;14.768;2022-10-16T06:55:31;99573.88;;;13.06;100.00
46876;BME280;32866;50.160;14.768;2022-10-16T06:57:56;99584.66;;;13.22;100.00
46876;BME280;32866;50.160;14.768;2022-10-16T07:00:22;99590.81;;;13.26;100.00
46876;BME280;32866;50.160;14.768;2022-10-16T07:02:47;99599.00;;;13.17;100.00
46876;BME280;32866;50.160;14.768;2022-10-16T07:05:12;99595.31;;;13.11;100.00
46876;BME280;32866;50.160;14.768;2022-10-16T07:07:37;99584.00;;;13.09;100.00
46876;BME280;32866;50.160;14.768;2022-10-16T07:10:02;99581.72;;;13.16;100.00
46876;BME280;32866;50.160;14.768;2022-10-16T07:12:28;99584.66;;;13.22;100.00
46876;BME280;32866;50.160;14.768;2022-10-16T07:14:53;99579.78;;;13.26;100.00
46876;BME280;32866;50.160;14.768;2022-10-16T07:17:19;99586.69;;;13.31;100.00
46876;BME280;32866;50.160;14.768;2022-10-16T07:19:45;99600.03;;;13.32;100.00
46876;BME280;32866;50.160;14.768;2022-10-16T07:22:10;99601.19;;;13.53;100.00
46876;BME280;32866;50.160;14.768;2022-10-16T07:24:35;99602.28;;;13.65;100.00
46876;BME280;32866;50.160;14.768;2022-10-16T07:27:00;99603.00;;;13.97;100.00
46876;BME280;32866;50.160;14.768;2022-10-16T07:29:26;99608.53;;;14.16;100.00
46876;BME280;32866;50.160;14.768;2022-10-16T07:31:51;99619.88;;;14.08;100.00
46876;BME280;32866;50.160;14.768;2022-10-16T07:34:17;99624.16;;;14.19;100.00
46876;BME280;32866;50.160;14.768;2022-10-16T07:36:42;99623.75;;;14.29;100.00
46876;BME280;32866;50.160;14.768;2022-10-16T07:39:07;99621.28;;;14.41;100.00
46876;BME280;32866;50.160;14.768;2022-10-16T07:41:33;99616.69;;;14.47;100.00
46876;BME280;32866;50.160;14.768;2022-10-16T07:44:01;99624.53;;;14.67;100.00
46876;BME280;32866;50.160;14.768;2022-10-16T07:46:26;99634.63;;;14.61;100.00
46876;BME280;32866;50.160;14.768;2022-10-16T07:48:52;99635.72;;;14.63;100.00
46876;BME280;32866;50.160;14.768;2022-10-16T07:51:19;99643.84;;;14.67;100.00
46876;BME280;32866;50.160;14.768;2022-10-16T07:53:45;99636.16;;;14.71;100.00
46876;BME280;32866;50.160;14.768;2022-10-16T07:56:10;99632.19;;;14.72;100.00
46876;BME280;32866;50.160;14.768;2022-10-16T07:58:36;99640.47;;;14.63;100.00
46876;BME280;32866;50.160;14.768;2022-10-16T08:01:06;99640.75;;;14.56;100.00
46876;BME280;32866;50.160;14.768;2022-10-16T08:03:32;99633.84;;;14.51;100.00
46876;BME280;32866;50.160;14.768;2022-10-16T08:05:57;99631.84;;;14.42;100.00
46876;BME280;32866;50.160;14.768;2022-10-16T08:08:23;99640.75;;;14.56;100.00
46876;BME280;32866;50.160;14.768;2022-10-16T08:10:48;99641.66;;;14.53;100.00
46876;BME280;32866;50.160;14.768;2022-10-16T08:13:13;99645.22;;;14.62;100.00
46876;BME280;32866;50.160;14.768;2022-10-16T08:15:40;99637.97;;;14.56;100.00
46876;BME280;32866;50.160;14.768;2022-10-16T08:18:05;99636.13;;;14.53;100.00
46876;BME280;32866;50.160;14.768;2022-10-16T08:20:31;99645.97;;;14.72;100.00
46876;BME280;32866;50.160;14.768;2022-10-16T08:22:56;99635.09;;;14.78;100.00
46876;BME280;32866;50.160;14.768;2022-10-16T08:25:22;99640.75;;;14.74;100.00
46876;BME280;32866;50.160;14.768;2022-10-16T08:27:47;99649.81;;;14.84;100.00
46876;BME280;32866;50.160;14.768;2022-10-16T08:30:13;99638.00;;;14.83;100.00
46876;BME280;32866;50.160;14.768;2022-10-16T08:32:38;99634.94;;;14.91;100.00
46876;BME280;32866;50.160;14.768;2022-10-16T08:35:03;99626.66;;;14.91;100.00
46876;BME280;32866;50.160;14.768;2022-10-16T08:37:31;99625.56;;;14.97;100.00
46876;BME280;32866;50.160;14.768;2022-10-16T08:39:57;99628.00;;;15.05;100.00
46876;BME280;32866;50.160;14.768;2022-10-16T08:50:17;99651.13;;;15.16;100.00
46876;BME280;32866;50.160;14.768;2022-10-16T08:52:43;99641.50;;;15.12;100.00
46876;BME280;32866;50.160;14.768;2022-10-16T08:55:23;99657.56;;;15.23;100.00
46876;BME280;32866;50.160;14.768;2022-10-16T08:57:53;99653.59;;;15.24;100.00
46876;BME280;32866;50.160;14.768;2022-10-16T09:00:18;99658.63;;;15.34;100.00
46876;BME280;32866;50.160;14.768;2022-10-16T09:05:23;99673.25;;;15.77;100.00
46876;BME280;32866;50.160;14.768;2022-10-16T09:10:39;99686.56;;;15.70;100.00
46876;BME280;32866;50.160;14.768;2022-10-16T09:13:12;99680.41;;;15.75;100.00
46876;BME280;32866;50.160;14.768;2022-10-16T09:15:47;99683.13;;;15.93;100.00
46876;BME280;32866;50.160;14.768;2022-10-16T09:18:20;99685.25;;;15.99;100.00
46876;BME280;32866;50.160;14.768;2022-10-16T09:21:09;99679.78;;;15.89;100.00
46876;BME280;32866;50.160;14.768;2022-10-16T09:23:39;99679.03;;;15.89;100.00
46876;BME280;32866;50.160;14.768;2022-10-16T09:26:05;99677.31;;;15.91;100.00
46876;BME280;32866;50.160;14.768;2022-10-16T09:28:30;99664.41;;;15.98;100.00
46876;BME280;32866;50.160;14.768;2022-10-16T09:30:56;99669.22;;;16.12;100.00
46876;BME280;32866;50.160;14.768;2022-10-16T09:33:23;99663.00;;;16.26;100.00
46876;BME280;32866;50.160;14.768;2022-10-16T09:35:53;99679.66;;;16.41;100.00
46876;BME280;32866;50.160;14.768;2022-10-16T09:40:47;99681.41;;;16.78;100.00
46876;BME280;32866;50.160;14.768;2022-10-16T09:45:40;99692.94;;;17.15;100.00
46876;BME280;32866;50.160;14.768;2022-10-16T09:48:17;99689.00;;;17.07;100.00
46876;BME280;32866;50.160;14.768;2022-10-16T09:50:54;99698.09;;;17.37;100.00
46876;BME280;32866;50.160;14.768;2022-10-16T09:53:20;99698.34;;;17.69;100.00
46876;BME280;32866;50.160;14.768;2022-10-16T09:55:51;99705.03;;;17.92;100.00
46876;BME280;32866;50.160;14.768;2022-10-16T09:58:17;99700.75;;;17.91;100.00
46876;BME280;32866;50.160;14.768;2022-10-16T10:00:48;99701.50;;;18.27;100.00
46876;BME280;32866;50.160;14.768;2022-10-16T10:03:30;99699.38;;;18.37;100.00
46876;BME280;32866;50.160;14.768;2022-10-16T10:05:58;99710.63;;;18.69;100.00
46876;BME280;32866;50.160;14.768;2022-10-16T10:08:23;99714.72;;;18.73;100.00
46876;BME280;32866;50.160;14.768;2022-10-16T10:10:48;99709.06;;;19.09;100.00
46876;BME280;32866;50.160;14.768;2022-10-16T10:13:21;99716.22;;;19.16;100.00
46876;BME280;32866;50.160;14.768;2022-10-16T10:15:47;99708.75;;;19.27;100.00
46876;BME280;32866;50.160;14.768;2022-10-16T10:18:16;99706.97;;;19.82;100.00
46876;BME280;32866;50.160;14.768;2022-10-16T10:20:43;99703.53;;;20.48;100.00
46876;BME280;32866;50.160;14.768;2022-10-16T10:23:21;99710.53;;;20.81;100.00
46876;BME280;32866;50.160;14.768;2022-10-16T10:25:52;99704.00;;;21.06;100.00
46876;BME280;32866;50.160;14.768;2022-10-16T10:28:28;99699.34;;;20.64;100.00
46876;BME280;32866;50.160;14.768;2022-10-16T10:31:00;99701.06;;;20.55;100.00
46876;BME280;32866;50.160;14.768;2022-10-16T10:33:47;99694.94;;;20.46;100.00
46876;BME280;32866;50.160;14.768;2022-10-16T10:39:06;99695.44;;;20.44;100.00
46876;BME280;32866;50.160;14.768;2022-10-16T10:41:38;99689.16;;;20.55;100.00
46876;BME280;32866;50.160;14.768;2022-10-16T10:44:21;99697.63;;;20.78;100.00
46876;BME280;32866;50.160;14.768;2022-10-16T10:46:53;99693.72;;;21.52;100.00
46876;BME280;32866;50.160;14.768;2022-10-16T10:49:25;99692.63;;;22.17;100.00
46876;BME280;32866;50.160;14.768;2022-10-16T10:56:56;99681.78;;;21.85;100.00
46876;BME280;32866;50.160;14.768;2022-10-16T10:59:33;99681.72;;;22.08;100.00
46876;BME280;32866;50.160;14.768;2022-10-16T11:04:44;99682.72;;;22.86;100.00
46876;BME280;32866;50.160;14.768;2022-10-16T11:07:22;99678.03;;;23.11;99.91
46876;BME280;32866;50.160;14.768;2022-10-16T11:09:51;99691.75;;;22.56;100.00
46876;BME280;32866;50.160;14.768;2022-10-16T11:12:20;99693.16;;;22.80;100.00
46876;BME280;32866;50.160;14.768;2022-10-16T11:14:58;99700.59;;;23.49;96.58
46876;BME280;32866;50.160;14.768;2022-10-16T11:17:39;99699.03;;;23.90;100.00
46876;BME280;32866;50.160;14.768;2022-10-16T11:20:17;99697.72;;;23.91;96.81
46876;BME280;32866;50.160;14.768;2022-10-16T11:25:26;99700.56;;;23.19;98.17
46876;BME280;32866;50.160;14.768;2022-10-16T11:30:39;99697.66;;;22.94;100.00
46876;BME280;32866;50.160;14.768;2022-10-16T11:37:59;99696.66;;;22.33;100.00
46876;BME280;32866;50.160;14.768;2022-10-16T11:40:33;99706.34;;;22.10;100.00
46876;BME280;32866;50.160;14.768;2022-10-16T11:43:14;99711.19;;;21.98;100.00
46876;BME280;32866;50.160;14.768;2022-10-16T11:45:49;99711.41;;;22.28;100.00
46876;BME280;32866;50.160;14.768;2022-10-16T11:50:58;99698.59;;;23.14;100.00
46876;BME280;32866;50.160;14.768;2022-10-16T11:53:48;99697.81;;;23.49;98.26
46876;BME280;32866;50.160;14.768;2022-10-16T11:56:16;99694.34;;;24.23;94.16
46876;BME280;32866;50.160;14.768;2022-10-16T12:06:15;99693.69;;;24.79;88.42
46876;BME280;32866;50.160;14.768;2022-10-16T12:08:45;99699.50;;;24.19;90.27
46876;BME280;32866;50.160;14.768;2022-10-16T12:13:51;99698.72;;;23.33;95.92
46876;BME280;32866;50.160;14.768;2022-10-16T12:16:20;99708.00;;;23.05;94.96
46876;BME280;32866;50.160;14.768;2022-10-16T12:18:46;99708.28;;;22.49;98.99
46876;BME280;32866;50.160;14.768;2022-10-16T12:21:12;99711.63;;;22.36;100.00
46876;BME280;32866;50.160;14.768;2022-10-16T12:23:47;99703.25;;;22.24;100.00
46876;BME280;32866;50.160;14.768;2022-10-16T12:26:13;99712.19;;;22.06;100.00
46876;BME280;32866;50.160;14.768;2022-10-16T12:28:38;99704.34;;;21.82;100.00
46876;BME280;32866;50.160;14.768;2022-10-16T12:31:06;99702.31;;;21.77;100.00
46876;BME280;32866;50.160;14.768;2022-10-16T12:33:32;99699.53;;;21.60;100.00
46876;BME280;32866;50.160;14.768;2022-10-16T12:35:59;99708.69;;;21.49;100.00
46876;BME280;32866;50.160;14.768;2022-10-16T12:38:26;99701.06;;;21.49;100.00
46876;BME280;32866;50.160;14.768;2022-10-16T12:40:57;99694.47;;;21.53;100.00
46876;BME280;32866;50.160;14.768;2022-10-16T12:43:25;99695.75;;;21.68;100.00
46876;BME280;32866;50.160;14.768;2022-10-16T12:46:04;99698.28;;;21.61;100.00
46876;BME280;32866;50.160;14.768;2022-10-16T12:48:30;99694.72;;;21.77;100.00
46876;BME280;32866;50.160;14.768;2022-10-16T12:50:56;99696.47;;;21.92;100.00
46876;BME280;32866;50.160;14.768;2022-10-16T12:53:22;99702.59;;;21.79;100.00
46876;BME280;32866;50.160;14.768;2022-10-16T12:56:31;99698.28;;;21.61;100.00
46876;BME280;32866;50.160;14.768;2022-10-16T12:58:41;99704.09;;;21.52;100.00
46876;BME280;32866;50.160;14.768;2022-10-16T13:01:19;99702.03;;;21.46;100.00
46876;BME280;32866;50.160;14.768;2022-10-16T13:08:57;99709.63;;;22.31;100.00
46876;BME280;32866;50.160;14.768;2022-10-16T13:11:31;99701.69;;;22.40;100.00
46876;BME280;32866;50.160;14.768;2022-10-16T13:16:30;99703.25;;;22.24;100.00
46876;BME280;32866;50.160;14.768;2022-10-16T13:21:33;99710.16;;;22.01;100.00
46876;BME280;32866;50.160;14.768;2022-10-16T13:24:04;99715.75;;;21.84;100.00
46876;BME280;32866;50.160;14.768;2022-10-16T13:29:14;99719.19;;;22.52;100.00
46876;BME280;32866;50.160;14.768;2022-10-16T13:31:39;99730.66;;;22.37;100.00
46876;BME280;32866;50.160;14.768;2022-10-16T13:34:05;99726.13;;;22.12;100.00
46876;BME280;32866;50.160;14.768;2022-10-16T13:36:35;99722.34;;;21.98;100.00
46876;BME280;32866;50.160;14.768;2022-10-16T13:39:10;99730.97;;;21.77;100.00
46876;BME280;32866;50.160;14.768;2022-10-16T13:41:36;99736.56;;;21.66;100.00
46876;BME280;32866;50.160;14.768;2022-10-16T13:44:02;99736.03;;;21.56;100.00
46876;BME280;32866;50.160;14.768;2022-10-16T13:46:27;99731.94;;;21.46;100.00
46876;BME280;32866;50.160;14.768;2022-10-16T13:48:58;99727.63;;;21.28;100.00
46876;BME280;32866;50.160;14.768;2022-10-16T13:51:23;99723.78;;;21.08;100.00
46876;BME280;32866;50.160;14.768;2022-10-16T13:53:49;99729.06;;;20.95;100.00
46876;BME280;32866;50.160;14.768;2022-10-16T13:56:18;99732.84;;;20.92;100.00
46876;BME280;32866;50.160;14.768;2022-10-16T13:58:44;99731.06;;;20.83;100.00
46876;BME280;32866;50.160;14.768;2022-10-16T14:05:59;99737.56;;;20.63;100.00
46876;BME280;32866;50.160;14.768;2022-10-16T14:08:26;99713.97;;;20.53;100.00
46876;BME280;32866;50.160;14.768;2022-10-16T14:10:57;99726.44;;;20.69;100.00